Time;durP1;ratioP1;P1;durP2;ratioP2;P2;SDS_P1;SDS_P2;PMS_P1;PMS_P2;Temp;Humidity;BMP_temperature;BMP_pressure;BME280_temperature;BME280_humidity;BME280_pressure;Samples;Min_cycle;Max_cycle;Signal;HPM_P1;HPM_P2
2022/07/17 00:00:49;;;;;;;0.00;0.00;;;31.40;29.90;;;;;;5080017;28;20035;-49
2022/07/17 00:03:17;;;;;;;0.20;0.10;;;31.30;29.90;;;;;;5079311;28;20040;-48
2022/07/17 00:05:45;;;;;;;0.47;0.10;;;31.30;29.90;;;;;;5084128;28;20063;-48
2022/07/17 00:08:13;;;;;;;0.50;0.20;;;31.30;29.90;;;;;;5086554;28;20040;-49
2022/07/17 00:10:43;;;;;;;0.00;0.00;;;31.30;30.00;;;;;;5082241;28;20085;-49
2022/07/17 00:13:11;;;;;;;0.05;0.00;;;31.30;30.00;;;;;;5080041;28;20036;-49
2022/07/17 00:15:39;;;;;;;0.00;0.00;;;31.30;30.00;;;;;;5075637;28;20032;-49
2022/07/17 00:18:07;;;;;;;0.10;0.10;;;31.30;30.00;;;;;;5075409;28;20040;-49
2022/07/17 00:20:34;;;;;;;0.10;0.00;;;31.20;30.00;;;;;;5073490;28;20119;-49
2022/07/17 00:23:02;;;;;;;0.38;0.38;;;31.20;30.10;;;;;;5075222;28;20048;-48
2022/07/17 00:25:29;;;;;;;1.48;0.10;;;31.20;30.00;;;;;;5075368;28;20433;-47
2022/07/17 00:27:57;;;;;;;0.65;0.10;;;31.20;30.00;;;;;;5079536;28;20461;-49
2022/07/17 00:30:23;;;;;;;1.20;0.10;;;31.20;30.10;;;;;;5071421;28;20028;-51
2022/07/17 00:32:52;;;;;;;0.10;0.10;;;31.10;30.00;;;;;;5069361;28;20040;-47
2022/07/17 00:35:19;;;;;;;0.17;0.00;;;31.10;30.10;;;;;;5075962;28;20044;-49
2022/07/17 00:37:48;;;;;;;0.28;0.28;;;31.10;30.10;;;;;;5072253;28;20060;-47
2022/07/17 00:40:19;;;;;;;0.20;0.10;;;31.10;30.10;;;;;;5079642;28;20116;-48
2022/07/17 00:42:46;;;;;;;0.45;0.03;;;31.10;30.10;;;;;;5079930;28;20132;-52
2022/07/17 00:45:14;;;;;;;0.10;0.03;;;31.10;30.00;;;;;;5077602;28;20048;-48
2022/07/17 00:47:53;;;;;;;0.75;0.10;;;31.10;30.10;;;;;;5077266;28;20056;-50
2022/07/17 00:50:22;;;;;;;1.65;0.10;;;31.10;30.10;;;;;;5071395;28;20527;-51
2022/07/17 00:52:49;;;;;;;0.10;0.10;;;31.00;30.00;;;;;;5071359;28;20048;-48
2022/07/17 00:55:18;;;;;;;3.00;0.10;;;31.00;30.10;;;;;;5074758;28;20047;-50
2022/07/17 00:57:48;;;;;;;0.30;0.00;;;31.00;30.10;;;;;;5077763;28;20036;-48
2022/07/17 01:00:16;;;;;;;1.17;0.17;;;31.00;30.10;;;;;;5071989;28;20048;-49
2022/07/17 01:02:47;;;;;;;0.32;0.10;;;31.00;30.10;;;;;;5077035;28;20036;-51
2022/07/17 01:05:16;;;;;;;0.10;0.10;;;30.90;30.00;;;;;;5075259;28;20056;-51
2022/07/17 01:07:44;;;;;;;0.05;0.05;;;30.90;30.00;;;;;;5075642;28;20070;-52
2022/07/17 01:10:12;;;;;;;0.10;0.10;;;31.00;30.10;;;;;;5079345;28;20131;-49
2022/07/17 01:12:40;;;;;;;0.10;0.10;;;30.90;30.10;;;;;;5070139;28;20041;-52
2022/07/17 01:15:08;;;;;;;0.95;0.10;;;30.90;30.10;;;;;;5076859;28;20039;-52
2022/07/17 01:17:36;;;;;;;0.20;0.13;;;30.90;30.00;;;;;;5075824;28;20040;-47
2022/07/17 01:20:04;;;;;;;0.22;0.10;;;30.90;30.00;;;;;;5072798;28;20083;-48
2022/07/17 01:22:32;;;;;;;0.10;0.10;;;30.90;30.00;;;;;;5074884;28;20497;-49
2022/07/17 01:24:59;;;;;;;0.10;0.10;;;30.90;30.10;;;;;;5075040;28;20505;-49
2022/07/17 01:27:26;;;;;;;1.33;0.00;;;30.90;30.00;;;;;;5075465;28;20488;-49
2022/07/17 01:29:53;;;;;;;0.10;0.10;;;30.80;30.00;;;;;;5074252;28;20074;-50
2022/07/17 01:32:20;;;;;;;0.40;0.30;;;30.80;30.00;;;;;;5072707;28;20054;-49
2022/07/17 01:34:47;;;;;;;0.50;0.10;;;30.80;30.10;;;;;;5071852;28;20044;-48
2022/07/17 01:37:14;;;;;;;0.25;0.10;;;30.80;30.00;;;;;;5082693;28;20062;-47
2022/07/17 01:39:55;;;;;;;0.22;0.10;;;30.80;30.10;;;;;;5076964;28;20534;-47
2022/07/17 01:42:23;;;;;;;1.10;0.10;;;30.80;30.70;;;;;;5074536;28;20082;-47
2022/07/17 01:44:50;;;;;;;1.55;0.00;;;30.80;30.10;;;;;;5072678;28;20042;-48
2022/07/17 01:47:18;;;;;;;0.38;0.10;;;30.70;30.00;;;;;;5077866;28;20047;-51
2022/07/17 01:49:46;;;;;;;0.20;0.10;;;30.70;30.00;;;;;;5074521;28;20043;-49
2022/07/17 01:52:13;;;;;;;0.40;0.10;;;30.70;30.00;;;;;;5080483;28;20535;-48
2022/07/17 01:54:40;;;;;;;1.17;0.05;;;30.70;30.00;;;;;;5071419;28;20043;-50
2022/07/17 01:57:10;;;;;;;0.45;0.00;;;30.70;30.10;;;;;;5075129;28;20062;-48
2022/07/17 01:59:37;;;;;;;0.17;0.17;;;30.70;30.10;;;;;;5072869;28;20051;-49
2022/07/17 02:02:06;;;;;;;0.10;0.10;;;30.70;30.10;;;;;;5077949;28;20104;-48
2022/07/17 02:04:33;;;;;;;1.10;0.10;;;30.70;30.10;;;;;;5080391;28;20037;-49
2022/07/17 02:07:00;;;;;;;0.85;0.00;;;30.70;30.10;;;;;;5071159;28;20080;-48
2022/07/17 02:09:27;;;;;;;1.02;0.00;;;30.60;30.10;;;;;;5074821;28;20066;-49
2022/07/17 02:11:55;;;;;;;0.00;0.00;;;30.60;30.10;;;;;;5075510;28;20032;-49
2022/07/17 02:14:24;;;;;;;0.68;0.55;;;30.60;30.10;;;;;;5079563;28;20056;-48
2022/07/17 02:16:51;;;;;;;0.10;0.10;;;30.60;30.10;;;;;;5079404;28;20132;-47
2022/07/17 02:19:18;;;;;;;1.23;0.17;;;30.60;30.10;;;;;;5068293;28;20524;-51
2022/07/17 02:21:45;;;;;;;0.20;0.10;;;30.50;30.10;;;;;;5073522;28;20978;-47
2022/07/17 02:24:12;;;;;;;0.20;0.10;;;30.50;30.10;;;;;;5080021;28;20036;-49
2022/07/17 02:26:39;;;;;;;0.00;0.00;;;30.50;30.10;;;;;;5080668;28;20067;-48
2022/07/17 02:29:06;;;;;;;0.68;0.10;;;30.50;30.10;;;;;;5084929;28;20054;-48
2022/07/17 02:31:35;;;;;;;0.10;0.00;;;30.50;30.10;;;;;;5077378;28;20541;-49
2022/07/17 02:34:02;;;;;;;1.15;0.10;;;30.50;30.10;;;;;;5082820;28;20044;-48
2022/07/17 02:36:29;;;;;;;0.22;0.10;;;30.50;30.10;;;;;;5080661;28;20071;-52
2022/07/17 02:38:56;;;;;;;0.68;0.20;;;30.50;30.10;;;;;;5080943;28;20043;-50
2022/07/17 02:41:23;;;;;;;0.10;0.10;;;30.50;30.10;;;;;;5074069;28;20501;-49
2022/07/17 02:43:50;;;;;;;0.10;0.10;;;30.40;30.60;;;;;;5073609;28;20052;-52
2022/07/17 02:46:17;;;;;;;0.30;0.25;;;30.50;30.10;;;;;;5086868;28;20121;-48
2022/07/17 02:48:45;;;;;;;1.70;0.55;;;30.40;30.00;;;;;;5078177;28;20543;-50
2022/07/17 02:51:12;;;;;;;0.35;0.20;;;30.40;30.10;;;;;;5075025;28;20087;-48
2022/07/17 02:53:39;;;;;;;0.13;0.13;;;30.40;30.10;;;;;;5074659;28;20047;-49
2022/07/17 02:56:07;;;;;;;0.40;0.10;;;30.40;30.10;;;;;;5082329;28;20459;-48
2022/07/17 02:58:34;;;;;;;0.85;0.10;;;30.40;30.10;;;;;;5075292;28;20515;-47
2022/07/17 03:01:01;;;;;;;2.22;0.10;;;30.40;30.10;;;;;;5080802;28;20113;-47
2022/07/17 03:03:28;;;;;;;0.25;0.10;;;30.40;30.10;;;;;;5075029;28;20062;-49
2022/07/17 03:05:56;;;;;;;0.20;0.10;;;30.40;30.10;;;;;;5078487;28;20048;-48
2022/07/17 03:08:23;;;;;;;0.55;0.10;;;30.40;30.10;;;;;;5078268;28;20045;-49
2022/07/17 03:10:51;;;;;;;0.88;0.10;;;30.40;30.10;;;;;;5075477;28;20048;-50
2022/07/17 03:13:18;;;;;;;0.10;0.10;;;30.30;30.10;;;;;;5077196;28;20146;-51
2022/07/17 03:15:45;;;;;;;2.00;0.20;;;30.30;30.10;;;;;;5076538;28;20131;-53
2022/07/17 03:18:12;;;;;;;0.00;0.00;;;30.30;30.10;;;;;;5075503;28;20082;-51
2022/07/17 03:20:39;;;;;;;0.10;0.10;;;30.30;30.10;;;;;;5076718;28;20045;-48
2022/07/17 03:23:08;;;;;;;0.10;0.10;;;30.30;30.10;;;;;;5071353;28;20036;-49
2022/07/17 03:25:35;;;;;;;0.80;0.10;;;30.30;30.10;;;;;;5078909;28;20601;-49
2022/07/17 03:28:02;;;;;;;0.28;0.00;;;30.30;30.10;;;;;;5081680;28;20047;-48
2022/07/17 03:30:29;;;;;;;0.17;0.10;;;30.20;30.10;;;;;;5076335;28;20071;-50
2022/07/17 03:32:56;;;;;;;0.00;0.00;;;30.30;30.20;;;;;;5072764;28;20047;-47
2022/07/17 03:35:23;;;;;;;0.95;0.10;;;30.20;30.10;;;;;;5071911;28;20044;-49
2022/07/17 03:37:50;;;;;;;2.47;0.20;;;30.20;30.10;;;;;;5078637;28;20071;-48
2022/07/17 03:40:19;;;;;;;0.70;0.08;;;30.20;30.00;;;;;;5078842;28;20097;-47
2022/07/17 03:42:46;;;;;;;0.13;0.10;;;30.20;30.10;;;;;;5072938;28;20511;-49
2022/07/17 03:45:13;;;;;;;0.10;0.10;;;30.20;30.10;;;;;;5072506;28;20423;-48
2022/07/17 03:47:40;;;;;;;0.43;0.10;;;30.20;30.20;;;;;;5075870;28;20045;-52
2022/07/17 03:50:08;;;;;;;0.05;0.00;;;30.10;30.10;;;;;;5076064;28;20182;-49
2022/07/17 03:52:35;;;;;;;0.28;0.10;;;30.20;30.30;;;;;;5079284;28;20478;-50
2022/07/17 03:55:02;;;;;;;0.75;0.10;;;30.20;30.30;;;;;;5079945;28;20123;-52
2022/07/17 03:57:30;;;;;;;4.47;0.10;;;30.10;30.20;;;;;;5076375;28;20047;-49
2022/07/17 03:59:57;;;;;;;0.10;0.10;;;30.10;30.30;;;;;;5072272;28;20078;-49
2022/07/17 04:02:25;;;;;;;0.00;0.00;;;30.10;30.30;;;;;;5075486;28;20068;-49
2022/07/17 04:04:52;;;;;;;0.28;0.10;;;30.10;30.30;;;;;;5076001;28;20054;-46
2022/07/17 04:07:27;;;;;;;0.20;0.10;;;30.10;30.30;;;;;;5075825;28;20421;-47
2022/07/17 04:09:56;;;;;;;0.47;0.10;;;30.10;30.30;;;;;;5080790;28;20033;-47
2022/07/17 04:12:23;;;;;;;1.45;0.25;;;30.10;30.40;;;;;;5069455;28;20040;-50
2022/07/17 04:14:51;;;;;;;0.22;0.10;;;30.10;30.40;;;;;;5080319;28;20036;-48
2022/07/17 04:17:18;;;;;;;0.10;0.10;;;30.10;30.40;;;;;;5069896;28;20045;-47
2022/07/17 04:19:46;;;;;;;2.55;0.10;;;30.10;30.40;;;;;;5079834;28;20071;-60
2022/07/17 04:22:13;;;;;;;1.38;0.10;;;30.10;30.60;;;;;;5083639;28;20044;-57
2022/07/17 04:24:40;;;;;;;0.52;0.10;;;30.10;30.60;;;;;;5081192;28;20060;-59
2022/07/17 04:27:08;;;;;;;1.65;0.00;;;30.00;30.70;;;;;;5084627;28;20036;-56
2022/07/17 04:29:35;;;;;;;1.98;0.10;;;30.00;30.70;;;;;;5086756;28;20039;-53
2022/07/17 04:32:05;;;;;;;0.40;0.10;;;30.00;30.70;;;;;;5083538;28;20456;-56
2022/07/17 04:34:33;;;;;;;1.40;0.10;;;30.00;30.90;;;;;;5074635;28;20496;-54
2022/07/17 04:37:01;;;;;;;0.10;0.00;;;29.90;30.90;;;;;;5093506;28;20190;-56
2022/07/17 04:39:29;;;;;;;0.10;0.05;;;30.00;31.10;;;;;;5085805;28;20067;-57
2022/07/17 04:41:56;;;;;;;0.52;0.43;;;30.00;31.20;;;;;;5082274;28;20400;-57
2022/07/17 04:44:23;;;;;;;0.28;0.10;;;30.00;31.30;;;;;;5083820;28;20121;-58
2022/07/17 04:46:50;;;;;;;0.22;0.10;;;30.00;31.30;;;;;;5079107;28;20115;-52
2022/07/17 04:49:18;;;;;;;0.10;0.10;;;29.90;31.30;;;;;;5076110;28;20036;-58
2022/07/17 04:51:45;;;;;;;0.10;0.00;;;29.90;31.10;;;;;;5085860;28;20115;-58
2022/07/17 04:54:12;;;;;;;0.40;0.10;;;29.90;31.20;;;;;;5077140;28;20052;-55
2022/07/17 04:56:39;;;;;;;2.72;0.30;;;29.90;31.30;;;;;;5080352;28;20131;-51
2022/07/17 04:59:06;;;;;;;0.40;0.30;;;29.90;31.40;;;;;;5089401;28;20067;-50
2022/07/17 05:01:34;;;;;;;0.30;0.10;;;29.90;31.50;;;;;;5084156;28;20036;-47
2022/07/17 05:04:02;;;;;;;2.28;0.10;;;29.90;31.80;;;;;;5081949;28;20119;-49
2022/07/17 05:06:31;;;;;;;0.10;0.10;;;29.90;31.90;;;;;;5082636;28;20131;-55
2022/07/17 05:08:58;;;;;;;0.32;0.10;;;29.90;31.90;;;;;;5085572;28;20097;-59
2022/07/17 05:11:25;;;;;;;1.58;0.10;;;29.90;32.00;;;;;;5069700;28;20359;-59
2022/07/17 05:13:53;;;;;;;0.13;0.10;;;29.90;32.20;;;;;;5087668;28;20070;-70
2022/07/17 05:16:21;;;;;;;1.75;0.10;;;29.90;32.30;;;;;;5071397;28;20036;-62
2022/07/17 05:18:48;;;;;;;0.65;0.20;;;29.90;32.50;;;;;;5084336;28;20040;-58
2022/07/17 05:21:15;;;;;;;0.30;0.10;;;29.90;32.30;;;;;;5077292;28;20403;-56
2022/07/17 05:23:43;;;;;;;5.15;0.77;;;29.90;32.30;;;;;;5087210;28;20127;-58
2022/07/17 05:26:10;;;;;;;2.85;1.13;;;29.90;32.50;;;;;;5062293;28;20127;-60
2022/07/17 05:28:37;;;;;;;0.30;0.15;;;29.90;33.10;;;;;;5075501;28;20047;-61
2022/07/17 05:31:05;;;;;;;1.38;0.63;;;29.90;33.30;;;;;;5085361;28;20035;-63
2022/07/17 05:33:32;;;;;;;0.30;0.30;;;29.90;33.20;;;;;;5044530;28;20450;-61
2022/07/17 05:35:59;;;;;;;0.65;0.35;;;29.90;33.20;;;;;;5056088;28;20674;-61
2022/07/17 05:38:26;;;;;;;1.45;0.10;;;29.90;33.20;;;;;;5077521;28;20131;-61
2022/07/17 05:40:54;;;;;;;2.45;0.22;;;29.90;33.00;;;;;;5078046;28;20535;-62
2022/07/17 05:43:21;;;;;;;0.32;0.20;;;29.90;33.40;;;;;;5081202;28;20048;-60
2022/07/17 05:45:48;;;;;;;0.28;0.17;;;29.90;33.30;;;;;;5081106;28;20032;-49
2022/07/17 05:48:15;;;;;;;0.28;0.28;;;29.90;33.60;;;;;;5072321;28;20060;-60
2022/07/17 05:50:42;;;;;;;0.38;0.10;;;29.80;33.80;;;;;;5088350;28;20399;-59
2022/07/17 05:53:09;;;;;;;4.22;0.50;;;29.90;33.70;;;;;;5081365;28;20100;-61
2022/07/17 05:55:37;;;;;;;0.93;0.25;;;29.90;34.60;;;;;;5083864;28;20117;-59
2022/07/17 05:58:05;;;;;;;5.93;0.95;;;29.90;36.00;;;;;;5078289;28;20047;-61
2022/07/17 06:00:32;;;;;;;10.50;2.08;;;30.00;36.90;;;;;;5076520;28;20036;-60
2022/07/17 06:02:59;;;;;;;5.35;0.50;;;30.00;37.40;;;;;;5071578;28;20040;-59
2022/07/17 06:05:26;;;;;;;6.82;0.80;;;30.10;37.80;;;;;;5076513;28;20486;-59
2022/07/17 06:07:54;;;;;;;0.40;0.20;;;30.10;38.00;;;;;;5078710;28;20067;-59
2022/07/17 06:10:21;;;;;;;4.78;0.30;;;30.10;38.20;;;;;;5085536;28;20032;-58
2022/07/17 06:12:49;;;;;;;3.45;0.30;;;30.10;38.20;;;;;;5088699;28;20484;-59
2022/07/17 06:15:17;;;;;;;4.03;0.63;;;30.10;38.10;;;;;;5079289;28;20036;-58
2022/07/17 06:17:44;;;;;;;3.55;0.20;;;30.20;38.20;;;;;;5070785;28;20043;-59
2022/07/17 06:20:12;;;;;;;2.65;0.60;;;30.20;38.20;;;;;;5074693;28;20063;-59
2022/07/17 06:22:39;;;;;;;7.88;0.28;;;30.30;38.20;;;;;;5070267;28;20044;-59
2022/07/17 06:25:07;;;;;;;5.55;0.32;;;30.30;38.10;;;;;;5083425;28;20398;-61
2022/07/17 06:27:34;;;;;;;1.95;0.25;;;30.30;38.00;;;;;;5089367;28;20123;-62
2022/07/17 06:30:01;;;;;;;5.00;0.40;;;30.40;38.00;;;;;;5072101;28;20033;-59
2022/07/17 06:32:30;;;;;;;1.77;0.30;;;30.40;37.90;;;;;;5076271;28;20109;-61
2022/07/17 06:34:57;;;;;;;1.25;0.20;;;30.40;37.90;;;;;;5075420;28;20040;-61
2022/07/17 06:37:24;;;;;;;1.58;0.20;;;30.40;37.80;;;;;;5080999;28;20460;-61
2022/07/17 06:39:51;;;;;;;0.45;0.10;;;30.50;37.70;;;;;;5081253;28;20032;-60
2022/07/17 06:42:18;;;;;;;0.95;0.10;;;30.50;37.50;;;;;;5078991;28;20079;-61
2022/07/17 06:44:45;;;;;;;0.50;0.25;;;30.50;37.50;;;;;;5054704;28;20062;-61
2022/07/17 06:47:12;;;;;;;1.27;0.55;;;30.60;37.40;;;;;;5076122;28;20037;-60
2022/07/17 06:49:40;;;;;;;3.00;0.20;;;30.60;37.40;;;;;;5080695;28;20054;-61
2022/07/17 06:52:08;;;;;;;2.92;0.10;;;30.60;37.20;;;;;;5077259;28;20036;-61
2022/07/17 06:54:35;;;;;;;0.20;0.10;;;30.60;37.20;;;;;;5078255;28;20039;-61
2022/07/17 06:57:02;;;;;;;0.30;0.20;;;30.60;37.10;;;;;;5075286;28;20067;-61
2022/07/17 06:59:29;;;;;;;0.28;0.10;;;30.60;37.00;;;;;;5079006;28;20032;-61
2022/07/17 07:01:56;;;;;;;0.20;0.20;;;30.70;36.90;;;;;;5074495;28;20135;-61
2022/07/17 07:04:23;;;;;;;3.35;0.35;;;30.70;36.80;;;;;;5084780;28;20054;-60
2022/07/17 07:06:51;;;;;;;0.45;0.10;;;30.70;36.70;;;;;;5081502;28;20547;-61
2022/07/17 07:09:18;;;;;;;2.05;0.80;;;30.70;36.70;;;;;;5078360;28;20042;-60
2022/07/17 07:11:45;;;;;;;0.35;0.10;;;30.70;36.60;;;;;;5072456;28;20044;-61
2022/07/17 07:14:12;;;;;;;0.57;0.10;;;30.80;36.60;;;;;;5079619;28;20051;-61
2022/07/17 07:16:39;;;;;;;0.20;0.10;;;30.80;36.50;;;;;;5080140;28;20044;-61
2022/07/17 07:19:07;;;;;;;2.17;0.40;;;30.80;36.50;;;;;;5084542;28;20033;-61
2022/07/17 07:21:34;;;;;;;0.40;0.10;;;30.80;36.40;;;;;;5077736;28;20051;-60
2022/07/17 07:24:02;;;;;;;0.43;0.10;;;30.80;36.30;;;;;;5076940;28;20032;-61
2022/07/17 07:26:29;;;;;;;1.80;0.10;;;30.90;36.40;;;;;;5088164;28;20058;-61
2022/07/17 07:28:56;;;;;;;1.65;0.20;;;30.90;36.50;;;;;;5072937;28;20036;-61
2022/07/17 07:31:23;;;;;;;1.40;0.13;;;30.90;36.30;;;;;;5073613;28;20047;-61
2022/07/17 07:33:50;;;;;;;0.98;0.10;;;30.80;36.10;;;;;;5075082;28;20520;-60
2022/07/17 07:36:18;;;;;;;0.28;0.28;;;30.90;36.10;;;;;;5069413;28;20631;-61
2022/07/17 07:38:46;;;;;;;0.10;0.10;;;30.90;36.10;;;;;;5074505;28;20032;-61
2022/07/17 07:41:14;;;;;;;0.40;0.20;;;30.90;36.10;;;;;;5075388;28;20119;-61
2022/07/17 07:43:41;;;;;;;0.10;0.10;;;30.90;36.00;;;;;;5076663;28;20517;-60
2022/07/17 07:46:08;;;;;;;0.68;0.10;;;30.90;36.00;;;;;;5079301;28;20771;-61
2022/07/17 07:48:35;;;;;;;3.10;0.10;;;30.90;36.00;;;;;;5070006;28;20043;-61
2022/07/17 07:51:03;;;;;;;0.40;0.10;;;30.90;35.90;;;;;;5076797;28;20067;-61
2022/07/17 07:53:30;;;;;;;0.10;0.10;;;30.90;35.90;;;;;;5072246;28;20045;-60
2022/07/17 07:55:57;;;;;;;0.50;0.13;;;30.90;35.90;;;;;;5072954;28;20055;-60
2022/07/17 07:58:25;;;;;;;0.20;0.10;;;30.90;35.80;;;;;;5075576;28;20412;-61
2022/07/17 08:00:52;;;;;;;1.05;0.20;;;31.00;35.90;;;;;;5076060;28;20667;-61
2022/07/17 08:03:19;;;;;;;0.20;0.20;;;31.00;35.90;;;;;;5073526;28;20048;-61
2022/07/17 08:05:46;;;;;;;0.10;0.10;;;31.00;35.90;;;;;;5075108;28;20129;-60
2022/07/17 08:08:13;;;;;;;0.20;0.10;;;31.10;36.00;;;;;;5077576;28;20424;-60
2022/07/17 08:10:40;;;;;;;0.17;0.08;;;31.00;35.90;;;;;;5085067;28;20126;-61
2022/07/17 08:13:07;;;;;;;0.55;0.10;;;31.10;36.00;;;;;;5085782;28;20040;-61
2022/07/17 08:15:36;;;;;;;0.30;0.03;;;31.00;35.90;;;;;;5068858;28;20457;-60
2022/07/17 08:18:03;;;;;;;1.90;0.10;;;31.10;36.00;;;;;;5081088;28;20095;-60
2022/07/17 08:20:30;;;;;;;0.40;0.40;;;31.10;36.00;;;;;;5073561;28;20040;-60
2022/07/17 08:22:57;;;;;;;0.45;0.20;;;31.10;36.00;;;;;;5078861;28;20036;-60
2022/07/17 08:25:25;;;;;;;0.10;0.10;;;31.10;35.90;;;;;;5076002;28;20137;-61
2022/07/17 08:27:52;;;;;;;2.25;0.10;;;31.10;35.90;;;;;;5077159;28;20032;-61
2022/07/17 08:30:19;;;;;;;0.88;0.20;;;31.10;35.90;;;;;;5056777;28;20048;-61
2022/07/17 08:32:47;;;;;;;0.13;0.10;;;31.10;36.00;;;;;;5075501;28;20050;-60
2022/07/17 08:35:14;;;;;;;1.55;0.45;;;31.10;35.90;;;;;;5073563;28;20044;-60
2022/07/17 08:37:49;;;;;;;0.17;0.10;;;31.20;36.00;;;;;;5078408;28;20033;-60
2022/07/17 08:40:20;;;;;;;0.10;0.10;;;31.10;35.90;;;;;;5075661;28;20036;-60
2022/07/17 08:42:47;;;;;;;0.10;0.10;;;31.20;36.00;;;;;;5075466;28;20531;-61
2022/07/17 08:45:14;;;;;;;1.60;0.00;;;31.10;35.90;;;;;;5073719;28;20093;-61
2022/07/17 08:47:42;;;;;;;1.85;0.03;;;31.20;35.90;;;;;;5073103;28;20040;-60
2022/07/17 08:50:12;;;;;;;0.08;0.00;;;31.20;35.90;;;;;;5079937;28;20048;-61
2022/07/17 08:52:41;;;;;;;0.20;0.03;;;31.20;35.90;;;;;;5075066;28;20199;-61
2022/07/17 08:55:10;;;;;;;1.85;0.15;;;31.20;35.90;;;;;;5078856;28;20720;-61
2022/07/17 08:57:39;;;;;;;0.10;0.00;;;31.20;35.80;;;;;;5074183;28;20129;-61
2022/07/17 09:00:10;;;;;;;0.10;0.08;;;31.20;35.80;;;;;;5076911;28;20032;-60
2022/07/17 09:02:37;;;;;;;0.15;0.10;;;31.20;35.80;;;;;;5070937;28;20106;-61
2022/07/17 09:05:05;;;;;;;0.10;0.10;;;31.20;35.80;;;;;;5072440;28;20071;-60
2022/07/17 09:07:34;;;;;;;0.05;0.05;;;31.20;35.80;;;;;;5075227;28;20106;-61
2022/07/17 09:10:01;;;;;;;0.10;0.10;;;31.30;35.90;;;;;;5078327;28;20052;-61
2022/07/17 09:12:29;;;;;;;0.10;0.10;;;31.30;35.80;;;;;;5075511;28;20043;-62
2022/07/17 09:14:56;;;;;;;0.15;0.10;;;31.30;35.80;;;;;;5077486;28;20044;-61
2022/07/17 09:17:26;;;;;;;0.00;0.00;;;31.30;35.70;;;;;;5072226;28;20527;-61
2022/07/17 09:19:53;;;;;;;0.00;0.00;;;31.30;35.70;;;;;;5070318;28;20048;-61
2022/07/17 09:22:23;;;;;;;0.28;0.20;;;31.30;35.70;;;;;;5083544;28;20492;-59
2022/07/17 09:24:55;;;;;;;1.38;0.10;;;31.30;35.80;;;;;;5061844;28;20066;-60
2022/07/17 09:27:33;;;;;;;0.22;0.10;;;31.30;35.70;;;;;;5078749;28;20043;-61
2022/07/17 09:30:02;;;;;;;0.13;0.10;;;31.30;35.70;;;;;;5071219;28;20519;-60
2022/07/17 09:32:31;;;;;;;0.10;0.10;;;31.30;35.90;;;;;;5076371;28;20048;-60
2022/07/17 09:35:00;;;;;;;0.10;0.05;;;31.30;35.90;;;;;;5084652;28;20040;-61
2022/07/17 09:37:29;;;;;;;0.10;0.00;;;31.30;35.70;;;;;;5083924;28;20036;-60
2022/07/17 09:39:58;;;;;;;0.55;0.10;;;31.30;35.70;;;;;;5082678;28;20032;-60
2022/07/17 09:42:28;;;;;;;0.65;0.10;;;31.30;35.70;;;;;;5079639;28;20047;-60
2022/07/17 09:44:57;;;;;;;0.20;0.10;;;31.40;35.80;;;;;;5075031;28;20036;-60
2022/07/17 09:47:24;;;;;;;0.63;0.10;;;31.40;35.80;;;;;;5078460;28;20047;-60
2022/07/17 09:49:53;;;;;;;0.10;0.00;;;31.40;35.80;;;;;;5076986;28;20040;-61
2022/07/17 09:52:20;;;;;;;0.22;0.10;;;31.40;35.70;;;;;;5078799;28;20047;-61
2022/07/17 09:54:49;;;;;;;0.10;0.00;;;31.40;35.80;;;;;;5081594;28;20047;-60
2022/07/17 09:57:19;;;;;;;0.57;0.00;;;31.40;35.70;;;;;;5072537;28;20041;-60
2022/07/17 09:59:47;;;;;;;0.40;0.08;;;31.40;35.60;;;;;;5079830;28;20580;-62
2022/07/17 10:02:15;;;;;;;1.80;0.00;;;31.40;35.50;;;;;;5076864;28;20037;-60
2022/07/17 10:04:43;;;;;;;0.10;0.10;;;31.40;35.50;;;;;;5082245;28;20714;-61
2022/07/17 10:07:10;;;;;;;0.08;0.08;;;31.40;35.40;;;;;;5077696;28;20132;-61
2022/07/17 10:09:38;;;;;;;0.03;0.03;;;31.40;35.40;;;;;;5072044;28;20043;-61
2022/07/17 10:12:07;;;;;;;0.10;0.00;;;31.50;35.40;;;;;;5084307;28;20036;-60
2022/07/17 10:14:38;;;;;;;0.03;0.00;;;31.50;35.40;;;;;;5075908;28;20048;-61
2022/07/17 10:17:09;;;;;;;0.85;0.00;;;31.50;35.40;;;;;;5084895;28;20040;-61
2022/07/17 10:19:45;;;;;;;0.00;0.00;;;31.50;35.40;;;;;;5082028;28;20060;-61
2022/07/17 10:22:13;;;;;;;0.10;0.00;;;31.50;35.30;;;;;;5079721;28;20489;-60
2022/07/17 10:24:47;;;;;;;0.10;0.10;;;31.50;35.40;;;;;;5078769;28;20074;-61
2022/07/17 10:27:22;;;;;;;1.27;0.10;;;31.50;35.30;;;;;;5055769;28;20055;-60
2022/07/17 10:30:01;;;;;;;0.08;0.00;;;31.50;35.40;;;;;;5072922;28;20036;-60
2022/07/17 10:32:28;;;;;;;0.10;0.08;;;31.50;35.40;;;;;;5077045;28;20086;-60
2022/07/17 10:35:00;;;;;;;0.52;0.10;;;31.50;35.30;;;;;;5078121;28;20056;-61
2022/07/17 10:37:31;;;;;;;0.00;0.00;;;31.50;35.40;;;;;;5081128;28;20063;-61
2022/07/17 10:40:02;;;;;;;0.10;0.10;;;31.60;35.40;;;;;;5077440;28;20500;-60
2022/07/17 10:42:47;;;;;;;0.55;0.00;;;31.50;35.50;;;;;;5078381;28;20040;-60
2022/07/17 10:45:17;;;;;;;0.10;0.10;;;31.60;35.40;;;;;;5075672;28;20433;-61
2022/07/17 10:47:51;;;;;;;0.15;0.00;;;31.50;35.30;;;;;;5076609;28;20044;-60
2022/07/17 10:50:21;;;;;;;0.03;0.03;;;31.60;35.50;;;;;;5081064;28;20045;-61
2022/07/17 10:53:01;;;;;;;0.47;0.00;;;31.60;35.50;;;;;;5074318;28;20040;-61
2022/07/17 10:55:29;;;;;;;0.05;0.00;;;31.60;35.40;;;;;;5073239;28;20040;-61
2022/07/17 10:57:56;;;;;;;0.10;0.00;;;31.60;35.50;;;;;;5075028;28;20038;-62
2022/07/17 11:00:25;;;;;;;1.08;0.00;;;31.60;35.40;;;;;;5078610;28;20509;-60
2022/07/17 11:02:52;;;;;;;0.17;0.08;;;31.60;35.40;;;;;;5055274;28;20119;-61
2022/07/17 11:05:20;;;;;;;0.20;0.10;;;31.60;35.30;;;;;;5078913;28;20048;-60
2022/07/17 11:07:52;;;;;;;0.00;0.00;;;31.60;35.40;;;;;;5068265;28;20051;-61
2022/07/17 11:10:20;;;;;;;0.20;0.17;;;31.70;35.40;;;;;;5077086;28;20040;-61
2022/07/17 11:12:47;;;;;;;0.10;0.10;;;31.70;36.00;;;;;;5080157;28;20050;-61
2022/07/17 11:15:14;;;;;;;0.35;0.10;;;31.60;35.20;;;;;;5076569;28;20044;-60
2022/07/17 11:17:47;;;;;;;0.38;0.00;;;31.70;35.20;;;;;;5088713;28;20089;-60
2022/07/17 11:20:15;;;;;;;1.13;0.10;;;31.70;35.20;;;;;;5078093;28;20116;-60
2022/07/17 11:22:43;;;;;;;0.00;0.00;;;31.70;35.20;;;;;;5077522;28;20041;-60
2022/07/17 11:25:11;;;;;;;0.00;0.00;;;31.70;35.70;;;;;;5063878;28;20048;-60
2022/07/17 11:27:39;;;;;;;0.63;0.10;;;31.70;35.10;;;;;;5070886;28;20043;-59
2022/07/17 11:30:13;;;;;;;0.10;0.10;;;31.70;35.10;;;;;;5069422;28;20036;-60
2022/07/17 11:32:40;;;;;;;0.20;0.10;;;31.80;35.10;;;;;;5074091;28;20191;-62
2022/07/17 11:35:19;;;;;;;0.10;0.10;;;31.80;35.10;;;;;;5074659;28;20044;-60
2022/07/17 11:37:48;;;;;;;0.00;0.00;;;31.80;35.00;;;;;;5083746;28;20481;-60
2022/07/17 11:40:16;;;;;;;0.20;0.00;;;31.80;35.00;;;;;;5084552;28;20032;-62
2022/07/17 11:42:43;;;;;;;3.92;0.03;;;31.80;35.00;;;;;;5076600;28;20047;-62
2022/07/17 11:45:11;;;;;;;0.20;0.20;;;31.80;34.90;;;;;;5073359;28;20047;-62
2022/07/17 11:47:38;;;;;;;0.63;0.20;;;31.90;35.00;;;;;;5074797;28;20071;-60
2022/07/17 11:50:08;;;;;;;1.45;0.65;;;31.90;35.00;;;;;;5075739;28;20056;-61
2022/07/17 11:52:48;;;;;;;0.10;0.10;;;31.80;34.80;;;;;;5076505;28;20029;-59
2022/07/17 11:55:16;;;;;;;0.45;0.10;;;31.90;34.90;;;;;;5080107;28;20047;-61
2022/07/17 11:57:46;;;;;;;0.10;0.10;;;31.90;34.90;;;;;;5071674;28;20053;-61
2022/07/17 12:00:15;;;;;;;0.10;0.00;;;31.90;34.90;;;;;;5077818;28;20055;-62
2022/07/17 12:02:43;;;;;;;0.10;0.00;;;31.90;34.80;;;;;;5071769;28;20160;-62
2022/07/17 12:05:25;;;;;;;;;;;31.90;34.80;;;;;;5094073;27;20381;-61
2022/07/17 12:07:52;;;;;;;0.10;0.10;;;31.90;34.70;;;;;;5066888;28;19924;-61
2022/07/17 12:10:22;;;;;;;0.73;0.08;;;31.90;34.80;;;;;;5082519;28;20044;-61
2022/07/17 12:12:57;;;;;;;0.00;0.00;;;31.90;34.80;;;;;;5083842;28;20427;-61
2022/07/17 12:15:36;;;;;;;0.38;0.10;;;32.00;34.70;;;;;;5077380;28;20135;-61
2022/07/17 12:18:04;;;;;;;0.10;0.10;;;32.00;34.70;;;;;;5079210;28;20062;-61
2022/07/17 12:20:47;;;;;;;1.95;0.10;;;32.00;34.70;;;;;;5081615;28;20050;-60
2022/07/17 12:23:27;;;;;;;0.00;0.00;;;32.00;34.60;;;;;;5085794;28;20552;-60
2022/07/17 12:26:05;;;;;;;0.60;0.60;;;32.10;34.60;;;;;;5085045;28;20554;-60
2022/07/17 12:28:32;;;;;;;0.03;0.00;;;32.10;34.60;;;;;;5083883;28;20047;-60
2022/07/17 12:30:59;;;;;;;0.00;0.00;;;32.10;34.60;;;;;;5064955;28;20051;-61
2022/07/17 12:33:26;;;;;;;0.25;0.00;;;32.20;34.50;;;;;;5083962;28;20454;-61
2022/07/17 12:35:55;;;;;;;0.00;0.00;;;32.10;34.50;;;;;;5083730;28;20477;-61
2022/07/17 12:38:22;;;;;;;0.17;0.00;;;32.20;34.50;;;;;;5067724;28;20350;-59
2022/07/17 12:40:49;;;;;;;0.13;0.10;;;32.20;35.00;;;;;;5083405;28;20048;-61
2022/07/17 12:43:16;;;;;;;0.20;0.05;;;32.20;34.40;;;;;;5083933;28;20041;-61
2022/07/17 12:45:43;;;;;;;0.10;0.10;;;32.30;34.40;;;;;;5083536;28;20028;-60
2022/07/17 12:48:10;;;;;;;0.65;0.00;;;32.30;34.30;;;;;;5083657;28;20123;-62
2022/07/17 12:50:38;;;;;;;0.10;0.10;;;32.30;34.30;;;;;;5083928;28;20032;-61
2022/07/17 12:53:07;;;;;;;0.08;0.00;;;32.30;34.20;;;;;;5067426;28;20405;-61